Time;durP1;ratioP1;P1;durP2;ratioP2;P2;SDS_P1;SDS_P2;PMS_P1;PMS_P2;Temp;Humidity;BMP_temperature;BMP_pressure;BME280_temperature;BME280_humidity;BME280_pressure;Samples;Min_cycle;Max_cycle;Signal;HPM_P1;HPM_P2
2023/08/11 00:00:37;;;;;;;6.00;3.67;;;17.10;99.90;;;;;;5095925;28;20032;-71
2023/08/11 00:03:06;;;;;;;6.57;3.40;;;17.00;99.90;;;;;;5077781;28;20089;-71
2023/08/11 00:05:38;;;;;;;6.00;3.80;;;17.00;99.90;;;;;;5095587;28;20395;-71
2023/08/11 00:08:05;;;;;;;6.30;3.23;;;16.90;99.90;;;;;;5094382;28;20039;-71
2023/08/11 00:10:32;;;;;;;7.63;3.60;;;16.90;99.90;;;;;;5095438;28;20173;-71
2023/08/11 00:12:58;;;;;;;5.63;3.20;;;16.90;99.90;;;;;;5095478;28;20523;-71
2023/08/11 00:15:24;;;;;;;6.70;3.43;;;16.90;99.90;;;;;;5095239;28;20044;-71
2023/08/11 00:17:52;;;;;;;5.30;3.70;;;16.90;99.90;;;;;;5095305;28;20040;-71
2023/08/11 00:20:19;;;;;;;5.90;4.10;;;16.90;99.90;;;;;;5095189;28;20054;-71
2023/08/11 00:22:45;;;;;;;5.60;3.40;;;16.80;99.90;;;;;;5095272;28;20112;-71
2023/08/11 00:25:11;;;;;;;6.50;3.40;;;16.80;99.90;;;;;;5095069;28;20083;-72
2023/08/11 00:27:37;;;;;;;5.57;3.60;;;16.80;99.90;;;;;;5095418;28;20086;-71
2023/08/11 00:30:05;;;;;;;6.13;4.07;;;16.70;99.90;;;;;;5095058;28;20127;-71
2023/08/11 00:32:31;;;;;;;7.20;4.00;;;16.70;99.90;;;;;;5093902;28;20130;-71
2023/08/11 00:34:57;;;;;;;7.00;4.70;;;16.70;99.90;;;;;;5094900;28;20123;-71
2023/08/11 00:37:22;;;;;;;9.90;6.00;;;16.70;99.90;;;;;;5094820;28;20066;-71
2023/08/11 00:39:51;;;;;;;9.40;6.00;;;16.70;99.90;;;;;;5077151;28;20432;-71
2023/08/11 00:42:17;;;;;;;8.40;6.23;;;16.70;99.90;;;;;;5094698;28;20119;-71
2023/08/11 00:44:43;;;;;;;9.70;6.40;;;16.70;99.90;;;;;;5094935;28;20040;-71
2023/08/11 00:47:08;;;;;;;8.47;6.60;;;16.70;99.90;;;;;;5094768;28;20113;-71
2023/08/11 00:49:34;;;;;;;8.03;5.73;;;16.60;99.90;;;;;;5094337;28;20126;-71
2023/08/11 00:52:01;;;;;;;10.27;5.93;;;16.70;99.90;;;;;;5093561;28;20036;-71
2023/08/11 00:54:27;;;;;;;12.03;6.67;;;16.70;99.90;;;;;;5094546;28;20043;-71
2023/08/11 00:56:54;;;;;;;8.70;6.10;;;16.60;99.90;;;;;;5093570;28;20044;-71
2023/08/11 00:59:21;;;;;;;10.33;6.77;;;16.60;99.90;;;;;;5093441;28;20048;-71
2023/08/11 01:01:46;;;;;;;10.70;6.13;;;16.60;99.90;;;;;;5094502;28;20483;-71
2023/08/11 01:04:12;;;;;;;8.27;5.80;;;16.60;99.90;;;;;;5093996;28;20044;-72
2023/08/11 01:06:46;;;;;;;8.90;5.83;;;16.50;99.90;;;;;;5093910;28;20047;-71
2023/08/11 01:09:39;;;;;;;9.68;5.80;;;16.50;99.90;;;;;;5094417;28;20520;-71
2023/08/11 01:12:20;;;;;;;8.10;6.20;;;16.50;99.90;;;;;;5094439;28;20414;-71
2023/08/11 01:15:03;;;;;;;7.87;5.93;;;16.50;99.90;;;;;;5093611;28;20396;-71
2023/08/11 01:17:29;;;;;;;7.90;5.80;;;16.40;99.90;;;;;;5094089;28;20036;-71
2023/08/11 01:19:56;;;;;;;9.63;6.50;;;16.50;99.90;;;;;;5093816;28;20488;-71
2023/08/11 01:22:26;;;;;;;8.83;6.47;;;16.40;99.90;;;;;;5093970;28;20036;-71
2023/08/11 01:24:52;;;;;;;10.67;6.80;;;16.40;99.90;;;;;;5092906;28;20048;-71
2023/08/11 01:27:18;;;;;;;9.20;5.97;;;16.50;99.90;;;;;;5093521;28;20059;-72
2023/08/11 01:29:44;;;;;;;10.37;6.77;;;16.40;99.90;;;;;;5093755;28;20051;-71
2023/08/11 01:32:10;;;;;;;8.33;6.70;;;16.40;99.90;;;;;;5093862;28;20123;-71
2023/08/11 01:34:36;;;;;;;9.13;7.33;;;16.40;99.90;;;;;;5093455;28;20484;-71
2023/08/11 01:37:03;;;;;;;10.63;7.50;;;16.50;99.90;;;;;;5093992;28;20043;-71
2023/08/11 01:39:30;;;;;;;11.97;7.73;;;16.50;99.90;;;;;;5092583;28;20055;-71
2023/08/11 01:41:56;;;;;;;9.43;6.97;;;16.40;99.90;;;;;;5093804;28;20039;-71
2023/08/11 01:44:23;;;;;;;10.00;7.50;;;16.40;99.90;;;;;;5093522;28;20047;-72
2023/08/11 01:46:50;;;;;;;10.80;8.47;;;16.30;99.90;;;;;;5093705;28;20040;-71
2023/08/11 01:49:17;;;;;;;11.23;8.30;;;16.40;99.90;;;;;;5093644;28;20066;-71
2023/08/11 01:51:43;;;;;;;14.57;9.17;;;16.40;99.90;;;;;;5093594;28;20402;-71
2023/08/11 01:54:10;;;;;;;11.13;8.50;;;16.30;99.90;;;;;;5093544;28;20044;-71
2023/08/11 01:56:37;;;;;;;12.07;9.77;;;16.30;99.90;;;;;;5093361;28;20032;-71
2023/08/11 01:59:04;;;;;;;11.50;9.33;;;16.30;99.90;;;;;;5092608;28;20047;-71
2023/08/11 02:01:30;;;;;;;12.73;9.73;;;16.30;99.90;;;;;;5093287;28;20115;-71
2023/08/11 02:03:57;;;;;;;11.43;9.90;;;16.30;99.90;;;;;;5093489;28;20044;-71
2023/08/11 02:06:23;;;;;;;12.20;9.80;;;16.30;99.90;;;;;;5093290;28;20054;-72
2023/08/11 02:08:49;;;;;;;12.97;10.60;;;16.40;99.90;;;;;;5093477;28;20114;-71
2023/08/11 02:11:15;;;;;;;11.60;10.40;;;16.40;99.90;;;;;;5093309;28;20032;-71
2023/08/11 02:13:40;;;;;;;12.23;10.90;;;16.30;99.90;;;;;;5108879;28;20055;-71
2023/08/11 02:16:06;;;;;;;12.93;10.80;;;16.30;99.90;;;;;;5093248;28;20112;-71
2023/08/11 02:18:32;;;;;;;11.93;10.57;;;16.30;99.90;;;;;;5092830;28;20043;-71
2023/08/11 02:20:57;;;;;;;13.90;11.70;;;16.30;99.90;;;;;;5093297;28;20054;-71
2023/08/11 02:23:23;;;;;;;15.30;10.97;;;16.30;99.90;;;;;;5093036;28;20138;-71
2023/08/11 02:25:49;;;;;;;13.33;10.87;;;16.30;99.90;;;;;;5092296;28;20044;-71
2023/08/11 02:28:15;;;;;;;13.47;11.57;;;16.40;99.90;;;;;;5093126;28;20094;-71
2023/08/11 02:30:41;;;;;;;14.20;11.73;;;16.40;99.90;;;;;;5093084;28;20040;-71
2023/08/11 02:33:07;;;;;;;13.83;10.90;;;16.40;99.90;;;;;;5092377;28;20434;-71
2023/08/11 02:35:33;;;;;;;12.97;11.10;;;16.40;99.90;;;;;;5091700;28;20039;-71
2023/08/11 02:37:59;;;;;;;13.33;11.10;;;16.40;99.90;;;;;;5093139;28;20043;-71
2023/08/11 02:40:26;;;;;;;13.23;11.43;;;16.40;99.90;;;;;;5092860;28;20110;-71
2023/08/11 02:42:56;;;;;;;12.50;11.17;;;16.40;99.90;;;;;;5092059;28;20117;-71
2023/08/11 02:45:23;;;;;;;15.40;10.90;;;16.40;99.90;;;;;;5091837;28;20379;-71
2023/08/11 02:47:50;;;;;;;13.23;10.93;;;16.40;99.90;;;;;;5093012;28;20039;-71
2023/08/11 02:50:17;;;;;;;11.57;10.37;;;16.40;99.90;;;;;;5093008;28;20093;-71
2023/08/11 02:52:43;;;;;;;11.37;10.17;;;16.40;99.90;;;;;;5075002;28;20128;-71
2023/08/11 02:55:11;;;;;;;13.80;10.30;;;16.40;99.90;;;;;;5092916;28;20114;-71
2023/08/11 02:57:37;;;;;;;15.23;10.23;;;16.40;99.90;;;;;;5092518;28;20127;-71
2023/08/11 03:00:10;;;;;;;13.77;9.73;;;16.30;99.90;;;;;;5092930;28;20122;-71
2023/08/11 03:02:36;;;;;;;11.17;8.97;;;16.30;99.90;;;;;;5092817;28;20044;-71
2023/08/11 03:05:06;;;;;;;13.57;10.27;;;16.30;99.90;;;;;;5092897;28;20127;-71
2023/08/11 03:07:36;;;;;;;12.83;10.53;;;16.40;99.90;;;;;;5092801;28;20114;-71
2023/08/11 03:10:03;;;;;;;13.47;10.13;;;16.30;99.90;;;;;;5092731;28;20373;-71
2023/08/11 03:12:28;;;;;;;12.37;9.80;;;16.30;99.90;;;;;;5092311;28;20368;-72
2023/08/11 03:14:55;;;;;;;13.50;8.73;;;16.30;99.90;;;;;;5093086;28;20093;-71
2023/08/11 03:17:21;;;;;;;16.17;10.17;;;16.30;99.90;;;;;;5092904;28;20062;-71
2023/08/11 03:19:46;;;;;;;10.27;9.17;;;16.30;99.90;;;;;;5092539;28;20036;-71
2023/08/11 03:22:13;;;;;;;12.10;9.47;;;16.30;99.90;;;;;;5092644;28;20139;-71
2023/08/11 03:24:39;;;;;;;14.27;9.53;;;16.30;99.90;;;;;;5091515;28;20426;-71
2023/08/11 03:27:06;;;;;;;15.77;9.83;;;16.30;99.90;;;;;;5092744;28;20032;-71
2023/08/11 03:29:32;;;;;;;11.83;9.70;;;16.30;99.90;;;;;;5095381;28;20060;-71
2023/08/11 03:31:58;;;;;;;11.13;8.97;;;16.30;99.90;;;;;;5096207;28;20044;-71
2023/08/11 03:34:23;;;;;;;16.33;9.50;;;16.30;99.90;;;;;;5095096;28;20055;-71
2023/08/11 03:36:49;;;;;;;11.13;9.17;;;16.30;99.90;;;;;;5096000;28;20068;-71
2023/08/11 03:39:15;;;;;;;10.23;8.70;;;16.30;99.90;;;;;;5096128;28;20043;-71
2023/08/11 03:41:41;;;;;;;11.33;9.37;;;16.30;99.90;;;;;;5094707;28;20039;-71
2023/08/11 03:44:06;;;;;;;14.53;9.53;;;16.30;99.90;;;;;;5096044;28;20044;-71
2023/08/11 03:46:32;;;;;;;11.47;9.40;;;16.30;99.90;;;;;;5095793;28;20043;-71
2023/08/11 03:48:58;;;;;;;12.37;9.00;;;16.30;99.90;;;;;;5095849;28;20079;-71
2023/08/11 03:51:23;;;;;;;14.50;9.13;;;16.30;99.90;;;;;;5095857;28;20035;-71
2023/08/11 03:53:49;;;;;;;12.43;8.73;;;16.30;99.90;;;;;;5095380;28;20065;-71
2023/08/11 03:56:15;;;;;;;12.27;9.47;;;16.20;99.90;;;;;;5096105;28;20365;-71
2023/08/11 03:58:41;;;;;;;15.00;9.73;;;16.20;99.90;;;;;;5095470;28;20046;-71
2023/08/11 04:01:06;;;;;;;12.37;9.10;;;16.20;99.90;;;;;;5095710;28;20070;-71
2023/08/11 04:03:32;;;;;;;12.20;9.83;;;16.20;99.90;;;;;;5094687;28;20044;-71
2023/08/11 04:05:58;;;;;;;12.37;9.60;;;16.20;99.90;;;;;;5095553;28;20357;-71
2023/08/11 04:08:26;;;;;;;12.47;10.17;;;16.20;99.90;;;;;;5094485;28;20040;-71
2023/08/11 04:10:53;;;;;;;14.30;10.13;;;16.20;99.90;;;;;;5094024;28;20036;-71
2023/08/11 04:13:19;;;;;;;10.03;9.03;;;16.20;99.90;;;;;;5095571;28;20155;-71
2023/08/11 04:15:49;;;;;;;10.37;8.77;;;16.10;99.90;;;;;;5095253;28;20079;-71
2023/08/11 04:18:15;;;;;;;10.43;9.30;;;16.10;99.90;;;;;;5094491;28;20044;-71
2023/08/11 04:20:40;;;;;;;14.97;9.13;;;16.10;99.90;;;;;;5095144;28;20055;-71
2023/08/11 04:23:06;;;;;;;11.57;8.70;;;16.10;99.90;;;;;;5095310;28;20443;-71
2023/08/11 04:25:32;;;;;;;12.53;9.50;;;16.10;99.90;;;;;;5095342;28;20040;-71
2023/08/11 04:28:00;;;;;;;10.67;8.70;;;16.10;99.90;;;;;;5094970;28;20040;-71
2023/08/11 04:30:26;;;;;;;11.63;9.13;;;16.10;99.90;;;;;;5095157;28;20058;-71
2023/08/11 04:32:52;;;;;;;11.47;9.40;;;16.10;99.90;;;;;;5094965;28;20384;-71
2023/08/11 04:35:18;;;;;;;12.63;9.17;;;16.10;99.90;;;;;;5095171;28;20498;-71
2023/08/11 04:37:44;;;;;;;10.63;9.27;;;16.10;99.90;;;;;;5094920;28;20044;-71
2023/08/11 04:40:11;;;;;;;13.43;9.03;;;16.10;99.90;;;;;;5093893;28;20491;-71
2023/08/11 04:42:37;;;;;;;11.80;9.03;;;16.10;99.90;;;;;;5095105;28;20044;-71
2023/08/11 04:45:04;;;;;;;13.23;9.10;;;16.10;99.90;;;;;;5093487;28;20055;-71
2023/08/11 04:47:29;;;;;;;14.50;9.13;;;16.20;99.90;;;;;;5094937;28;20434;-71
2023/08/11 04:49:55;;;;;;;13.97;8.77;;;16.20;99.90;;;;;;5093524;28;20039;-71
2023/08/11 04:52:21;;;;;;;10.77;8.43;;;16.20;99.90;;;;;;5094659;28;20050;-71
2023/08/11 04:54:47;;;;;;;11.87;8.93;;;16.20;99.90;;;;;;5094334;28;20110;-71
2023/08/11 04:57:13;;;;;;;10.17;8.17;;;16.20;99.90;;;;;;5094869;28;20127;-71
2023/08/11 04:59:39;;;;;;;12.07;7.87;;;16.30;99.90;;;;;;5094390;28;20480;-71
2023/08/11 05:02:05;;;;;;;10.73;8.63;;;16.30;99.90;;;;;;5094371;28;20047;-71
2023/08/11 05:04:30;;;;;;;11.57;8.60;;;16.30;99.90;;;;;;5093540;28;20368;-71
2023/08/11 05:06:56;;;;;;;11.10;8.47;;;16.40;99.90;;;;;;5094250;28;20468;-72
2023/08/11 05:09:22;;;;;;;12.53;7.63;;;16.40;99.90;;;;;;5094658;28;20043;-71
2023/08/11 05:11:47;;;;;;;9.20;8.30;;;16.50;99.90;;;;;;5094040;28;20479;-72
2023/08/11 05:14:15;;;;;;;12.93;8.33;;;16.50;99.90;;;;;;5094284;28;20149;-71
2023/08/11 05:16:41;;;;;;;11.40;7.93;;;16.50;99.90;;;;;;5094338;28;20040;-71
2023/08/11 05:19:07;;;;;;;9.80;8.30;;;16.60;99.90;;;;;;5094289;28;20043;-71
2023/08/11 05:21:33;;;;;;;11.27;8.60;;;16.60;99.90;;;;;;5094212;28;20039;-71
2023/08/11 05:23:58;;;;;;;11.93;8.47;;;16.70;99.90;;;;;;5092723;28;20123;-71
2023/08/11 05:26:24;;;;;;;12.77;9.03;;;16.80;99.90;;;;;;5093772;28;20044;-71
2023/08/11 05:28:50;;;;;;;12.20;7.83;;;16.80;99.90;;;;;;5093802;28;20048;-71
2023/08/11 05:31:16;;;;;;;11.07;8.00;;;16.90;99.90;;;;;;5093531;28;20118;-71
2023/08/11 05:33:42;;;;;;;9.17;7.20;;;17.00;99.90;;;;;;5092442;28;20036;-71
2023/08/11 05:36:08;;;;;;;9.13;7.67;;;17.00;99.90;;;;;;5093735;28;20047;-71
2023/08/11 05:38:34;;;;;;;12.43;8.20;;;17.10;99.90;;;;;;5092922;28;20380;-71
2023/08/11 05:40:59;;;;;;;10.10;7.67;;;17.20;99.90;;;;;;5093631;28;20040;-71
2023/08/11 05:43:25;;;;;;;8.87;7.17;;;17.30;99.90;;;;;;5093939;28;20044;-71
2023/08/11 05:45:51;;;;;;;10.63;7.27;;;17.40;99.90;;;;;;5093598;28;20464;-71
2023/08/11 05:48:16;;;;;;;10.67;7.17;;;17.50;99.90;;;;;;5093792;28;20043;-71
2023/08/11 05:50:45;;;;;;;10.27;7.13;;;17.60;99.90;;;;;;5093314;28;20058;-71
2023/08/11 05:53:11;;;;;;;12.20;7.23;;;17.80;99.90;;;;;;5093492;28;20044;-71
2023/08/11 05:55:37;;;;;;;10.73;7.23;;;18.10;99.90;;;;;;5093644;28;20085;-71
2023/08/11 05:58:03;;;;;;;11.10;7.50;;;18.90;99.90;;;;;;5093332;28;20047;-71
2023/08/11 06:00:29;;;;;;;9.83;6.13;;;20.00;99.90;;;;;;5093469;28;20082;-71
2023/08/11 06:02:55;;;;;;;8.53;5.93;;;21.20;99.90;;;;;;5092280;28;20093;-71
2023/08/11 06:05:21;;;;;;;7.87;5.93;;;22.20;99.90;;;;;;5092263;28;20062;-72
2023/08/11 06:07:48;;;;;;;9.50;5.60;;;23.10;99.90;;;;;;5092326;28;20044;-72
2023/08/11 06:10:14;;;;;;;12.17;6.67;;;24.00;99.90;;;;;;5093338;28;20083;-69
2023/08/11 06:12:40;;;;;;;7.83;5.70;;;24.60;99.90;;;;;;5093405;28;20074;-71
2023/08/11 06:15:06;;;;;;;11.10;5.53;;;25.20;99.90;;;;;;5093197;28;20361;-71
2023/08/11 06:17:32;;;;;;;8.17;5.43;;;25.90;99.90;;;;;;5093292;28;20051;-71
2023/08/11 06:19:58;;;;;;;10.23;6.03;;;26.50;99.90;;;;;;5075046;28;20472;-71
2023/08/11 06:22:24;;;;;;;8.13;4.90;;;26.80;99.90;;;;;;5093274;28;20051;-71
2023/08/11 06:24:50;;;;;;;8.53;5.10;;;27.30;99.90;;;;;;5093196;28;20040;-71
2023/08/11 06:27:15;;;;;;;10.10;4.83;;;27.80;98.50;;;;;;5093169;28;20530;-71
2023/08/11 06:29:41;;;;;;;8.63;4.87;;;28.40;97.10;;;;;;5093214;28;20048;-71
2023/08/11 06:32:07;;;;;;;6.40;4.60;;;28.80;92.60;;;;;;5092958;28;20040;-71
2023/08/11 06:34:33;;;;;;;7.93;4.80;;;29.20;88.30;;;;;;5093182;28;20040;-71
2023/08/11 06:36:59;;;;;;;9.67;4.43;;;29.50;83.10;;;;;;5092898;28;20131;-72
2023/08/11 06:39:24;;;;;;;7.70;5.00;;;29.80;77.00;;;;;;5092094;28;20040;-71
2023/08/11 06:41:50;;;;;;;7.67;4.60;;;30.00;71.10;;;;;;5093022;28;20036;-72
2023/08/11 06:44:16;;;;;;;6.82;4.47;;;30.30;67.00;;;;;;5092869;28;20118;-72
2023/08/11 06:46:42;;;;;;;7.00;4.15;;;30.50;63.50;;;;;;5093225;28;20036;-72
2023/08/11 06:49:07;;;;;;;6.45;4.65;;;30.70;61.20;;;;;;5091827;28;20100;-72
2023/08/11 06:51:33;;;;;;;9.25;4.72;;;31.10;59.30;;;;;;5092945;28;20039;-72
2023/08/11 06:53:59;;;;;;;7.75;4.47;;;31.40;57.10;;;;;;5091721;28;20079;-72
2023/08/11 06:56:25;;;;;;;6.47;4.00;;;31.60;55.60;;;;;;5093208;28;20109;-72
2023/08/11 06:58:51;;;;;;;5.90;4.13;;;31.90;54.50;;;;;;5092923;28;20364;-72
2023/08/11 07:01:18;;;;;;;6.90;4.10;;;32.30;53.20;;;;;;5092738;28;20036;-72
2023/08/11 07:03:47;;;;;;;6.05;4.22;;;32.50;52.00;;;;;;5094800;28;20044;-72
2023/08/11 07:06:13;;;;;;;8.15;4.10;;;32.70;50.60;;;;;;5096551;28;20040;-72
2023/08/11 07:08:39;;;;;;;7.93;4.53;;;32.90;50.70;;;;;;5096752;28;20157;-72
2023/08/11 07:11:05;;;;;;;9.05;4.53;;;32.80;50.20;;;;;;5078433;28;20036;-72
2023/08/11 07:13:31;;;;;;;8.45;4.30;;;33.10;49.80;;;;;;5096935;28;20046;-72
2023/08/11 07:15:57;;;;;;;7.28;4.25;;;33.50;49.20;;;;;;5095992;28;20039;-72
2023/08/11 07:18:27;;;;;;;8.13;4.60;;;33.70;48.60;;;;;;5095319;28;20051;-72
2023/08/11 07:20:53;;;;;;;6.22;3.83;;;33.90;47.20;;;;;;5095553;28;20505;-72
2023/08/11 07:23:18;;;;;;;8.98;4.60;;;34.10;47.30;;;;;;5096217;28;20079;-72
2023/08/11 07:25:44;;;;;;;7.38;4.38;;;34.30;46.50;;;;;;5096449;28;20044;-72
2023/08/11 07:28:10;;;;;;;6.57;4.22;;;34.40;45.60;;;;;;5096218;28;20040;-72
2023/08/11 07:30:38;;;;;;;8.63;4.00;;;34.40;45.70;;;;;;5095936;28;20154;-72
2023/08/11 07:33:04;;;;;;;6.63;4.22;;;34.60;45.40;;;;;;5096003;28;20087;-72
2023/08/11 07:35:30;;;;;;;7.20;4.55;;;34.70;45.10;;;;;;5096206;28;20109;-72
2023/08/11 07:37:56;;;;;;;7.90;4.60;;;34.80;45.00;;;;;;5096228;28;20075;-72
2023/08/11 07:40:22;;;;;;;7.72;4.13;;;35.30;44.40;;;;;;5095918;28;20459;-72
2023/08/11 07:42:48;;;;;;;8.05;4.38;;;35.20;43.90;;;;;;5096085;28;20093;-72
2023/08/11 07:45:13;;;;;;;7.70;4.97;;;35.20;44.00;;;;;;5095824;28;20074;-72
2023/08/11 07:47:40;;;;;;;6.75;4.55;;;35.20;43.60;;;;;;5094963;28;20494;-72
2023/08/11 07:50:06;;;;;;;8.00;4.75;;;35.50;43.40;;;;;;5095696;28;20368;-72
2023/08/11 07:52:32;;;;;;;7.75;4.05;;;35.70;43.40;;;;;;5095858;28;20541;-72
2023/08/11 07:54:57;;;;;;;5.97;3.95;;;35.70;42.90;;;;;;5095831;28;20048;-72
2023/08/11 07:57:23;;;;;;;5.70;3.92;;;35.80;42.20;;;;;;5095567;28;20047;-72
2023/08/11 07:59:49;;;;;;;7.30;4.10;;;35.90;42.60;;;;;;5094750;28;20456;-72
2023/08/11 08:02:15;;;;;;;7.13;4.53;;;36.20;42.50;;;;;;5094381;28;20043;-72
2023/08/11 08:04:42;;;;;;;7.80;4.00;;;35.90;42.30;;;;;;5095716;28;20044;-72
2023/08/11 08:07:08;;;;;;;7.25;4.13;;;35.90;42.30;;;;;;5077465;28;20112;-72
2023/08/11 08:09:34;;;;;;;5.82;4.25;;;35.80;42.90;;;;;;5095639;28;20044;-72
2023/08/11 08:12:00;;;;;;;6.68;3.72;;;35.40;43.10;;;;;;5095534;28;20490;-72
2023/08/11 08:14:26;;;;;;;6.32;3.88;;;35.30;43.20;;;;;;5095158;28;20078;-72
2023/08/11 08:16:52;;;;;;;7.03;3.53;;;34.90;43.30;;;;;;5095686;28;20106;-72
2023/08/11 08:19:20;;;;;;;6.43;3.70;;;34.70;43.60;;;;;;5095215;28;20472;-72
2023/08/11 08:21:46;;;;;;;6.97;3.88;;;33.80;44.40;;;;;;5095455;28;20040;-72
2023/08/11 08:24:14;;;;;;;7.18;3.88;;;32.70;45.50;;;;;;5094168;28;20101;-72
2023/08/11 08:26:41;;;;;;;6.53;3.83;;;31.90;46.20;;;;;;5095224;28;20083;-72
2023/08/11 08:29:07;;;;;;;7.38;4.07;;;31.20;47.30;;;;;;5094772;28;20048;-72
2023/08/11 08:31:33;;;;;;;6.20;3.67;;;30.50;48.00;;;;;;5095129;28;20047;-72
2023/08/11 08:33:59;;;;;;;5.47;3.50;;;30.00;49.10;;;;;;5095049;28;20093;-72
2023/08/11 08:36:25;;;;;;;6.72;4.45;;;29.80;50.30;;;;;;5094724;28;20057;-72
2023/08/11 08:38:52;;;;;;;7.80;4.22;;;29.40;50.80;;;;;;5094956;28;20036;-72
2023/08/11 08:41:23;;;;;;;7.15;4.05;;;28.90;51.80;;;;;;5094872;28;20123;-72
2023/08/11 08:43:50;;;;;;;9.23;3.97;;;28.70;53.50;;;;;;5095138;28;20051;-72
2023/08/11 08:46:17;;;;;;;7.13;4.00;;;28.50;54.50;;;;;;5094682;28;20040;-72
2023/08/11 08:49:10;;;;;;;9.10;4.95;;;28.30;55.90;;;;;;5094844;28;20065;-72
2023/08/11 08:51:39;;;;;;;8.70;4.53;;;28.20;58.20;;;;;;5086103;28;20047;-71
2023/08/11 08:54:08;;;;;;;6.65;4.10;;;28.20;59.30;;;;;;5094696;28;20077;-72
2023/08/11 08:56:38;;;;;;;7.57;4.90;;;28.10;60.10;;;;;;5094902;28;20092;-71
2023/08/11 08:59:04;;;;;;;6.75;4.20;;;27.90;60.90;;;;;;5094286;28;20472;-71
2023/08/11 09:01:31;;;;;;;7.53;3.55;;;27.60;62.10;;;;;;5094402;28;20036;-72
2023/08/11 09:03:58;;;;;;;8.50;4.15;;;27.50;63.20;;;;;;5094487;28;20047;-72
2023/08/11 09:06:25;;;;;;;6.97;3.50;;;27.50;64.60;;;;;;5094296;28;20036;-72
2023/08/11 09:08:50;;;;;;;6.85;4.03;;;27.40;65.40;;;;;;5093426;28;20069;-72
2023/08/11 09:11:16;;;;;;;6.25;4.20;;;27.40;65.60;;;;;;5092948;28;20087;-72
2023/08/11 09:13:45;;;;;;;8.80;4.25;;;27.40;65.70;;;;;;5094622;28;20530;-72
2023/08/11 09:16:14;;;;;;;7.68;4.03;;;27.40;66.20;;;;;;5094065;28;20093;-72
2023/08/11 09:18:42;;;;;;;6.25;4.10;;;27.40;67.30;;;;;;5094164;28;20126;-71
2023/08/11 09:21:08;;;;;;;8.48;3.75;;;27.40;67.40;;;;;;5094278;28;20139;-72
2023/08/11 09:23:35;;;;;;;6.70;3.70;;;27.40;67.60;;;;;;5093840;28;20519;-71
2023/08/11 09:26:01;;;;;;;6.32;3.88;;;27.40;68.50;;;;;;5093651;28;20084;-71
2023/08/11 09:28:27;;;;;;;6.57;4.03;;;27.40;68.70;;;;;;5093847;28;20076;-71
2023/08/11 09:30:53;;;;;;;6.25;3.80;;;27.40;70.40;;;;;;5092584;28;20478;-71
2023/08/11 09:33:22;;;;;;;9.30;3.50;;;27.40;70.80;;;;;;5092560;28;20079;-71
2023/08/11 09:35:48;;;;;;;8.40;3.47;;;27.30;72.90;;;;;;5093904;28;20407;-71
2023/08/11 09:38:15;;;;;;;6.78;3.40;;;27.30;74.90;;;;;;5093761;28;20063;-71
2023/08/11 09:40:41;;;;;;;7.95;3.58;;;27.30;74.40;;;;;;5093877;28;20098;-71
2023/08/11 09:43:09;;;;;;;7.68;4.00;;;27.40;73.50;;;;;;5093819;28;20035;-72
2023/08/11 09:45:35;;;;;;;8.35;3.58;;;27.40;73.50;;;;;;5093586;28;20040;-72
2023/08/11 09:48:00;;;;;;;7.03;3.13;;;27.40;73.00;;;;;;5092833;28;20088;-72
2023/08/11 09:50:30;;;;;;;7.72;3.83;;;27.50;75.10;;;;;;5093416;28;20032;-72
2023/08/11 09:52:58;;;;;;;8.63;3.92;;;27.50;75.50;;;;;;5093634;28;20086;-72
2023/08/11 09:55:28;;;;;;;9.82;3.35;;;27.50;76.20;;;;;;5093374;28;20044;-72
2023/08/11 09:57:56;;;;;;;6.00;3.50;;;27.50;75.90;;;;;;5093747;28;20044;-72
2023/08/11 10:00:23;;;;;;;6.32;3.30;;;27.60;77.40;;;;;;5093348;28;20054;-72
2023/08/11 10:03:11;;;;;;;7.80;3.30;;;27.70;76.30;;;;;;5075821;28;20411;-72
2023/08/11 10:05:41;;;;;;;6.30;3.33;;;27.90;76.60;;;;;;5093286;28;20052;-72
2023/08/11 10:08:11;;;;;;;6.10;2.83;;;27.90;75.20;;;;;;5093681;28;20110;-72
2023/08/11 10:10:38;;;;;;;8.05;3.65;;;28.00;73.70;;;;;;5093124;28;20040;-72
2023/08/11 10:13:25;;;;;;;6.47;3.55;;;28.00;73.80;;;;;;5092031;28;20048;-72
2023/08/11 10:15:52;;;;;;;6.75;2.90;;;27.90;70.60;;;;;;5093607;28;20054;-72
2023/08/11 10:18:19;;;;;;;4.97;2.80;;;27.90;72.30;;;;;;5093148;28;20032;-72
2023/08/11 10:20:46;;;;;;;7.55;3.50;;;27.90;73.70;;;;;;5093304;28;20047;-72
2023/08/11 10:23:13;;;;;;;6.10;3.20;;;27.90;71.40;;;;;;5093287;28;20086;-72
2023/08/11 10:25:39;;;;;;;8.68;3.58;;;27.90;72.50;;;;;;5092997;28;20418;-72
2023/08/11 10:28:07;;;;;;;7.68;3.25;;;27.80;72.50;;;;;;5093373;28;20119;-72
2023/08/11 10:30:33;;;;;;;6.03;3.50;;;27.70;74.80;;;;;;5091690;28;20136;-72
2023/08/11 10:33:03;;;;;;;5.63;3.03;;;27.70;76.70;;;;;;5093106;28;20043;-72
2023/08/11 10:35:36;;;;;;;5.93;3.42;;;27.60;77.90;;;;;;5091608;28;20037;-72
2023/08/11 10:38:04;;;;;;;5.50;3.22;;;27.60;77.80;;;;;;5094025;28;20380;-71
2023/08/11 10:40:39;;;;;;;6.38;3.42;;;27.50;79.30;;;;;;5096106;28;20079;-72
2023/08/11 10:43:05;;;;;;;7.75;2.97;;;27.50;81.30;;;;;;5096286;28;20047;-71
2023/08/11 10:45:36;;;;;;;6.57;3.60;;;27.40;82.90;;;;;;5096951;28;20077;-72
2023/08/11 10:48:09;;;;;;;7.63;3.25;;;27.30;83.60;;;;;;5097095;28;20122;-71
2023/08/11 10:50:38;;;;;;;9.85;3.28;;;27.30;84.70;;;;;;5096689;28;20044;-72
2023/08/11 10:53:19;;;;;;;6.85;3.13;;;27.30;83.70;;;;;;5096854;28;20040;-72
2023/08/11 10:56:02;;;;;;;5.88;3.28;;;27.30;84.20;;;;;;5096705;28;20067;-72
2023/08/11 10:58:32;;;;;;;7.95;3.70;;;27.20;86.00;;;;;;5095564;28;20184;-72
2023/08/11 11:00:58;;;;;;;5.53;2.90;;;27.30;88.80;;;;;;5096798;28;20086;-72
2023/08/11 11:03:25;;;;;;;6.30;3.63;;;27.30;88.30;;;;;;5096687;28;20076;-71
2023/08/11 11:05:51;;;;;;;4.68;2.95;;;27.40;86.70;;;;;;5095355;28;20048;-72
2023/08/11 11:08:17;;;;;;;5.47;3.17;;;27.40;87.80;;;;;;5096760;28;20046;-72
2023/08/11 11:10:43;;;;;;;6.75;3.55;;;27.40;87.00;;;;;;5096440;28;20048;-72
2023/08/11 11:13:09;;;;;;;6.97;3.08;;;27.40;88.70;;;;;;5096349;28;20496;-72
2023/08/11 11:15:35;;;;;;;6.13;3.35;;;27.30;90.20;;;;;;5096448;28;20131;-72
2023/08/11 11:18:01;;;;;;;7.40;3.45;;;27.40;90.80;;;;;;5096568;28;20101;-72
2023/08/11 11:20:27;;;;;;;9.10;3.92;;;27.30;90.30;;;;;;5096409;28;20051;-72
2023/08/11 11:22:53;;;;;;;10.68;3.53;;;27.30;90.90;;;;;;5096569;28;20040;-72
2023/08/11 11:25:20;;;;;;;5.57;3.38;;;27.40;91.30;;;;;;5096565;28;20044;-72
2023/08/11 11:27:47;;;;;;;7.15;3.83;;;27.40;91.40;;;;;;5095262;28;20416;-72
2023/08/11 11:30:13;;;;;;;6.65;3.33;;;27.40;91.90;;;;;;5096380;28;20052;-72
2023/08/11 11:32:40;;;;;;;13.35;3.97;;;27.50;92.30;;;;;;5096109;28;20044;-71
2023/08/11 11:35:09;;;;;;;6.53;3.60;;;27.50;92.50;;;;;;5096327;28;20040;-72
2023/08/11 11:37:35;;;;;;;7.25;3.83;;;27.40;92.70;;;;;;5096020;28;20039;-72
2023/08/11 11:40:07;;;;;;;7.80;3.67;;;27.30;92.90;;;;;;5096170;28;20048;-72
2023/08/11 11:42:36;;;;;;;8.15;4.07;;;27.30;93.40;;;;;;5096135;28;20043;-72
2023/08/11 11:45:02;;;;;;;7.97;3.08;;;27.30;93.30;;;;;;5096046;28;20050;-72
2023/08/11 11:47:28;;;;;;;7.37;3.53;;;27.30;94.30;;;;;;5095844;28;20044;-72
2023/08/11 11:49:58;;;;;;;6.45;4.00;;;27.20;94.60;;;;;;5095724;28;20039;-72
2023/08/11 11:52:27;;;;;;;7.72;3.80;;;27.20;94.20;;;;;;5095916;28;20043;-72
2023/08/11 11:54:54;;;;;;;7.73;3.40;;;27.30;94.70;;;;;;5095952;28;20044;-71
2023/08/11 11:57:23;;;;;;;5.50;3.17;;;27.20;94.70;;;;;;5095923;28;20043;-72
2023/08/11 11:59:49;;;;;;;8.18;3.72;;;27.20;95.80;;;;;;5095558;28;20081;-72
2023/08/11 12:02:16;;;;;;;5.82;3.38;;;27.20;96.10;;;;;;5095865;28;20079;-72
2023/08/11 12:04:47;;;;;;;7.60;3.70;;;27.30;95.90;;;;;;5094561;28;20460;-72
2023/08/11 12:07:31;;;;;;;6.18;3.13;;;27.30;95.50;;;;;;5095376;28;20515;-72
2023/08/11 12:09:57;;;;;;;6.35;3.63;;;27.30;96.60;;;;;;5096039;28;20354;-72
2023/08/11 12:12:26;;;;;;;5.87;3.60;;;27.30;95.60;;;;;;5095504;28;20122;-71
2023/08/11 12:14:53;;;;;;;8.87;3.80;;;27.30;95.00;;;;;;5077481;28;20384;-72
2023/08/11 12:17:21;;;;;;;7.33;3.53;;;27.30;95.30;;;;;;5095654;28;20362;-72
2023/08/11 12:19:47;;;;;;;5.67;3.33;;;27.40;95.60;;;;;;5095262;28;20123;-72
2023/08/11 12:22:13;;;;;;;8.13;3.43;;;27.40;96.10;;;;;;5095572;28;20078;-72
2023/08/11 12:24:39;;;;;;;7.07;3.50;;;27.50;96.00;;;;;;5095069;28;20494;-72
2023/08/11 12:27:05;;;;;;;5.03;3.20;;;27.60;96.40;;;;;;5095367;28;20142;-71
2023/08/11 12:29:30;;;;;;;7.33;3.20;;;27.60;96.50;;;;;;5093991;28;20123;-71
2023/08/11 12:31:57;;;;;;;5.70;3.03;;;27.70;95.70;;;;;;5094937;28;20126;-72
2023/08/11 12:34:23;;;;;;;5.83;3.43;;;27.70;95.60;;;;;;5095154;28;20388;-71
2023/08/11 12:36:49;;;;;;;4.70;2.93;;;27.80;96.00;;;;;;5094889;28;20122;-72
2023/08/11 12:39:15;;;;;;;5.03;3.20;;;27.80;95.10;;;;;;5093784;28;20083;-72
2023/08/11 12:41:41;;;;;;;6.90;3.63;;;27.70;94.60;;;;;;5094817;28;20044;-72